Main page
METAR-TAF:

METAR-TAF

Airports :

Koné Airport

Koné, New Caledonia

latitude: 21-03-12S, longitude: 164-50-18E, elevation: 7 m

METAR: missing

Time: 01:28 (14:28 UTC)

Forecast

The report was made 9 hours and 28 minutes ago, at 05:00 UTC
Forecast valid from 22 at 06 UTC to 23 at 06 UTC
Wind 8 kt from the South
Visibility 10 km or more
Scattered clouds at a height of 5000 ft

TAF: NWWD 220500Z 2206/2306 18008KT 9999 SCT050

Weather observations and forecasts of more than 4000 airports (METAR and TAF reports).

The available stations are represented by yellow and red dots on the map.

Hover mouse over dot to see the name of the station.

Then click to see weather observations and forecasts.

To change the map : click on the green buttons with a black cross to zoom in, on the green button with a dash to zoom out, or on the green arrows for adjacent maps.


METAR-TAF: